Nearby METAR Reports

 

KCMH - Columbus, Ohio, USA
Distance from station: SW 5mi, 8km
Updated: Wed, 25-Nov-2020 7:51am EST
Light rain, Overcast
Light rain, Overcast
 Wind from SSE
Wind: SSE 8 mph , 13 km/h
Temperature: 45°F , 7°C
Wind Chill: 41°F , 5°C
Dew Point: 43°F , 6°C
Humidity: 93%
Barometer: 30.05 inHg , 1017.6 hPa
Summary: Light rain
Clouds: Overcast
Visibility: 7 miles , 11 km
Cloud details: Overcast 3100 ft
2020/11/25 12:51 KCMH 251251Z 15007KT 7SM -RA OVC031 07/06 A3005 RMK AO2 SLP180 P0011 T00670056
KOSU - Columbus/St Univ, Ohio, USA
Distance from station: W 14mi, 23km
Updated: Wed, 25-Nov-2020 7:53am EST
Light rain, Mist, Overcast
Light rain, Mist, Overcast
 Wind from S
Wind: S 10 mph , 17 km/h
Temperature: 43°F , 6°C
Wind Chill: 37°F , 3°C
Dew Point: 43°F , 6°C
Humidity: 100%
Barometer: 30.04 inHg , 1017.3 hPa
Summary: Light rain, Mist
Clouds: Overcast
Visibility: 6 miles , 10 km
Cloud details: Overcast 3000 ft
2020/11/25 12:53 KOSU 251253Z 17009KT 6SM -RA BR OVC030 06/06 A3004 RMK AO2 SLP177 P0008 T00610056
 
KLCK - Rickenbacker Ang, Ohio, USA
Distance from station: SSW 17mi, 27km
Updated: Wed, 25-Nov-2020 7:55am EST
Light rain, Overcast
Light rain, Overcast
 Wind from SSE
Wind: SSE 8 mph , 13 km/h
Temperature: 43°F , 6°C
Wind Chill: 38°F , 3°C
Dew Point: 41°F , 5°C
Humidity: 93%
Barometer: 30.05 inHg , 1017.6 hPa
Summary: Light rain
Clouds: Overcast
Visibility: 10 miles , 16 km
Cloud details: Overcast 3400 ft
2020/11/25 12:55 KLCK 251255Z AUTO 15007KT 10SM -RA OVC034 06/05 A3005 RMK AO2 T00620050
KVTA - Newark, Ohio, USA
Distance from station: E 19mi, 30km
Updated: Wed, 25-Nov-2020 7:54am EST
Light rain, Overcast
Light rain, Overcast
 Wind from S
Wind: S 9 mph , 15 km/h
Temperature: 45°F , 7°C
Wind Chill: 40°F , 4°C
Dew Point: 39°F , 4°C
Humidity: 81%
Barometer: 30.07 inHg , 1018.3 hPa
Summary: Light rain
Clouds: Overcast
Visibility: 5 miles , 8 km
Cloud details: Overcast 6000 ft
2020/11/25 12:54 KVTA 251254Z AUTO 18008KT 5SM -RA OVC060 07/04 A3007 RMK AO2 SLP186 P0005 T00720044
 
KTZR - Columbus/Bolton, Ohio, USA
Distance from station: WSW 20mi, 31km
Updated: Wed, 25-Nov-2020 7:50am EST
Light rain, Mist, Overcast
Light rain, Mist, Overcast
 Wind from SSE
Wind: SSE 9 mph , 15 km/h
Temperature: 43°F , 6°C
Wind Chill: 38°F , 3°C
Dew Point: 41°F , 5°C
Humidity: 93%
Barometer: 30.05 inHg , 1017.6 hPa
Summary: Light rain, Mist
Clouds: Overcast
Visibility: 5 miles , 8 km
Cloud details: Overcast 3300 ft
2020/11/25 12:50 KTZR 251250Z 16008KT 5SM -RA BR OVC033 06/05 A3005
KLHQ - Lancaster, Ohio, USA
Distance from station: SSE 22mi, 36km
Updated: Wed, 25-Nov-2020 7:53am EST
Light rain, Mist, Overcast
Light rain, Mist, Overcast
 Wind from SE
Wind: SE 12 mph , 19 km/h
Temperature: 43°F , 6°C
Wind Chill: 37°F , 3°C
Dew Point: 39°F , 4°C
Humidity: 87%
Barometer: 30.08 inHg , 1018.6 hPa
Summary: Light rain, Mist
Clouds: Overcast
Visibility: 6 miles , 10 km
Cloud details: Mostly cloudy 3600 ft
Overcast 6000 ft
2020/11/25 12:53 KLHQ 251253Z AUTO 13010KT 6SM -RA BR BKN036 OVC060 06/04 A3008 RMK AO2 SLP188 P0006 T00610044
 
KDLZ - Delaware, Ohio, USA
Distance from station: NW 23mi, 36km
Updated: Wed, 25-Nov-2020 8:15am EST
Light rain, Overcast
Light rain, Overcast
 Wind from S
Wind: S 9 mph , 15 km/h
Temperature: 43°F , 6°C
Wind Chill: 38°F , 3°C
Dew Point: 41°F , 5°C
Humidity: 93%
Barometer: 30.03 inHg , 1016.9 hPa
Summary: Light rain
Clouds: Overcast
Visibility: 7 miles , 11 km
Cloud details: Overcast 3000 ft
2020/11/25 13:15 KDLZ 251315Z AUTO 17008KT 7SM -RA OVC030 06/05 A3003 RMK AO2 P0001
K4I3 - Mt Vernon/Knox, Ohio, USA
Distance from station: NE 25mi, 40km
Updated: Wed, 25-Nov-2020 8:15am EST
Rain, Overcast
Rain, Overcast
 Wind from SSE
Wind: SSE 8 mph , 13 km/h
Temperature: 41°F , 5°C
Wind Chill: 36°F , 2°C
Dew Point: 41°F , 5°C
Humidity: 100%
Barometer: 30.06 inHg , 1017.9 hPa
Summary: Rain
Clouds: Overcast
Visibility: 7 miles , 11 km
Cloud details: Partly cloudy 800 ft
Mostly cloudy 1100 ft
Overcast 2700 ft
2020/11/25 13:15 K4I3 251315Z AUTO 16007KT 7SM RA SCT008 BKN011 OVC027 05/05 A3006 RMK AO2 P0002
 
KMRT - Marysville, Ohio, USA
Distance from station: WNW 30mi, 49km
Updated: Wed, 25-Nov-2020 8:15am EST
Overcast
Overcast
 Wind from S
Wind: S 13 mph , 20 km/h
Temperature: 43°F , 6°C
Wind Chill: 36°F , 2°C
Dew Point: 41°F , 5°C
Humidity: 93%
Barometer: 30.02 inHg , 1016.6 hPa
Clouds: Overcast
Visibility: 4 miles , 6 km
Cloud details: Overcast 2800 ft
2020/11/25 13:15 KMRT 251315Z AUTO 19011KT 4SM OVC028 06/05 A3002 RMK AO2 P0001 T00610052
KMNN - Marion, Ohio, USA
Distance from station: NNW 41mi, 67km
Updated: Wed, 25-Nov-2020 8:11am EST
Light rain, Mist, Overcast
Light rain, Mist, Overcast
 Wind from S
Wind: S 13 mph , 20 km/h
Temperature: 45°F , 7°C
Wind Chill: 39°F , 4°C
Dew Point: 41°F , 5°C
Humidity: 87%
Barometer: 30.01 inHg , 1016.3 hPa
Summary: Light rain, Mist
Clouds: Overcast
Visibility: 3 miles , 5 km
Cloud details: Mostly cloudy 2500 ft
Overcast 3700 ft
2020/11/25 13:11 KMNN 251311Z AUTO 18011KT 3SM -RA BR BKN025 OVC037 07/05 A3001 RMK AO2 P0001 T00670050
 
KZZV - Zanesville, Ohio, USA
Distance from station: E 49mi, 79km
Updated: Wed, 25-Nov-2020 7:53am EST
Light rain, Overcast
Light rain, Overcast
 Wind from S
Wind: S 6 mph , 9 km/h
Temperature: 43°F , 6°C
Wind Chill: 39°F , 4°C
Dew Point: 37°F , 3°C
Humidity: 81%
Barometer: 30.10 inHg , 1019.3 hPa
Summary: Light rain
Clouds: Overcast
Visibility: 10 miles , 16 km
Cloud details: Overcast 8000 ft
2020/11/25 12:53 KZZV 251253Z AUTO 18005KT 10SM -RA OVC080 06/03 A3010 RMK AO2 RAB1155 SLP197 P0004 T00610033